sensor_id;sensor_type;location;lat;lon;timestamp;pressure;altitude;pressure_sealevel;temperature;humidity
82413;BME280;72056;51.980;15.436;2023-10-31T00:01:43;98760.06;;;11.70;100.00
82413;BME280;72056;51.980;15.436;2023-10-31T00:04:09;98769.47;;;11.68;100.00
82413;BME280;72056;51.980;15.436;2023-10-31T00:06:36;98769.56;;;11.74;100.00
82413;BME280;72056;51.980;15.436;2023-10-31T00:09:09;98759.31;;;11.76;100.00
82413;BME280;72056;51.980;15.436;2023-10-31T00:11:36;98749.06;;;11.78;100.00
82413;BME280;72056;51.980;15.436;2023-10-31T00:14:02;98740.22;;;11.76;100.00
82413;BME280;72056;51.980;15.436;2023-10-31T00:16:30;98732.47;;;11.73;100.00
82413;BME280;72056;51.980;15.436;2023-10-31T00:18:56;98741.44;;;11.74;100.00
82413;BME280;72056;51.980;15.436;2023-10-31T00:21:28;98729.72;;;11.73;100.00
82413;BME280;72056;51.980;15.436;2023-10-31T00:23:53;98732.81;;;11.70;100.00
82413;BME280;72056;51.980;15.436;2023-10-31T00:26:24;98734.50;;;11.71;100.00
82413;BME280;72056;51.980;15.436;2023-10-31T00:28:51;98728.19;;;11.71;100.00
82413;BME280;72056;51.980;15.436;2023-10-31T00:31:19;98728.66;;;11.74;100.00
82413;BME280;72056;51.980;15.436;2023-10-31T00:33:47;98717.38;;;11.77;100.00
82413;BME280;72056;51.980;15.436;2023-10-31T00:36:18;98708.16;;;11.78;100.00
82413;BME280;72056;51.980;15.436;2023-10-31T00:38:45;98709.19;;;11.77;100.00
82413;BME280;72056;51.980;15.436;2023-10-31T00:41:11;98703.75;;;11.77;100.00
82413;BME280;72056;51.980;15.436;2023-10-31T00:43:39;98703.34;;;11.80;100.00
82413;BME280;72056;51.980;15.436;2023-10-31T00:46:06;98696.84;;;11.81;100.00
82413;BME280;72056;51.980;15.436;2023-10-31T00:48:32;98705.69;;;11.83;100.00
82413;BME280;72056;51.980;15.436;2023-10-31T00:51:03;98707.56;;;11.83;100.00
82413;BME280;72056;51.980;15.436;2023-10-31T00:53:31;98708.22;;;11.85;100.00
82413;BME280;72056;51.980;15.436;2023-10-31T00:55:58;98701.91;;;11.84;100.00
82413;BME280;72056;51.980;15.436;2023-10-31T00:58:26;98701.69;;;11.86;100.00
82413;BME280;72056;51.980;15.436;2023-10-31T01:00:52;98695.63;;;11.84;100.00
82413;BME280;72056;51.980;15.436;2023-10-31T01:03:19;98695.63;;;11.84;100.00
82413;BME280;72056;51.980;15.436;2023-10-31T01:05:46;98696.25;;;11.86;100.00
82413;BME280;72056;51.980;15.436;2023-10-31T01:08:13;98692.28;;;11.89;100.00
82413;BME280;72056;51.980;15.436;2023-10-31T01:10:41;98691.44;;;11.88;100.00
82413;BME280;72056;51.980;15.436;2023-10-31T01:13:08;98693.78;;;11.91;100.00
82413;BME280;72056;51.980;15.436;2023-10-31T01:15:36;98702.59;;;11.93;100.00
82413;BME280;72056;51.980;15.436;2023-10-31T01:18:04;98695.06;;;11.95;100.00
82413;BME280;72056;51.980;15.436;2023-10-31T01:20:32;98683.97;;;11.97;100.00
82413;BME280;72056;51.980;15.436;2023-10-31T01:22:59;98681.66;;;12.00;100.00
82413;BME280;72056;51.980;15.436;2023-10-31T01:25:26;98684.59;;;11.99;100.00
82413;BME280;72056;51.980;15.436;2023-10-31T01:27:54;98682.69;;;11.99;100.00
82413;BME280;72056;51.980;15.436;2023-10-31T01:30:22;98681.00;;;11.98;100.00
82413;BME280;72056;51.980;15.436;2023-10-31T01:32:48;98669.47;;;11.96;100.00
82413;BME280;72056;51.980;15.436;2023-10-31T01:35:15;98666.75;;;11.96;100.00
82413;BME280;72056;51.980;15.436;2023-10-31T01:37:41;98649.94;;;11.93;100.00
82413;BME280;72056;51.980;15.436;2023-10-31T01:40:12;98644.09;;;11.96;100.00
82413;BME280;72056;51.980;15.436;2023-10-31T01:42:38;98634.88;;;11.97;100.00
82413;BME280;72056;51.980;15.436;2023-10-31T01:45:06;98633.19;;;11.96;100.00
82413;BME280;72056;51.980;15.436;2023-10-31T01:47:32;98616.16;;;11.94;100.00
82413;BME280;72056;51.980;15.436;2023-10-31T01:49:59;98610.75;;;12.00;100.00
82413;BME280;72056;51.980;15.436;2023-10-31T01:52:26;98601.34;;;12.03;100.00
82413;BME280;72056;51.980;15.436;2023-10-31T01:54:54;98594.19;;;12.02;100.00
82413;BME280;72056;51.980;15.436;2023-10-31T01:57:21;98590.16;;;11.98;100.00
82413;BME280;72056;51.980;15.436;2023-10-31T01:59:48;98576.34;;;11.99;100.00
82413;BME280;72056;51.980;15.436;2023-10-31T02:02:15;98573.63;;;11.99;100.00
82413;BME280;72056;51.980;15.436;2023-10-31T02:04:44;98579.91;;;12.00;100.00
82413;BME280;72056;51.980;15.436;2023-10-31T02:07:10;98575.50;;;11.99;100.00
82413;BME280;72056;51.980;15.436;2023-10-31T02:09:38;98577.19;;;12.00;100.00
82413;BME280;72056;51.980;15.436;2023-10-31T02:12:05;98562.28;;;11.96;100.00
82413;BME280;72056;51.980;15.436;2023-10-31T02:14:33;98555.97;;;11.95;100.00
82413;BME280;72056;51.980;15.436;2023-10-31T02:16:59;98553.06;;;11.97;100.00
82413;BME280;72056;51.980;15.436;2023-10-31T02:19:30;98553.91;;;11.97;100.00
82413;BME280;72056;51.980;15.436;2023-10-31T02:21:58;98553.91;;;11.97;100.00
82413;BME280;72056;51.980;15.436;2023-10-31T02:24:26;98557.25;;;11.99;100.00
82413;BME280;72056;51.980;15.436;2023-10-31T02:26:52;98560.81;;;12.00;100.00
82413;BME280;72056;51.980;15.436;2023-10-31T02:29:18;98571.72;;;12.00;100.00
82413;BME280;72056;51.980;15.436;2023-10-31T02:31:45;98566.09;;;12.01;100.00
82413;BME280;72056;51.980;15.436;2023-10-31T02:34:14;98562.31;;;12.02;100.00
82413;BME280;72056;51.980;15.436;2023-10-31T02:36:40;98565.88;;;12.03;100.00
82413;BME280;72056;51.980;15.436;2023-10-31T02:39:12;98562.50;;;12.01;100.00
82413;BME280;72056;51.980;15.436;2023-10-31T02:41:38;98558.09;;;12.00;100.00
82413;BME280;72056;51.980;15.436;2023-10-31T02:44:05;98558.94;;;12.00;100.00
82413;BME280;72056;51.980;15.436;2023-10-31T02:46:32;98550.94;;;11.99;100.00
82413;BME280;72056;51.980;15.436;2023-10-31T02:48:58;98556.41;;;11.99;100.00
82413;BME280;72056;51.980;15.436;2023-10-31T02:51:25;98555.38;;;12.00;100.00
82413;BME280;72056;51.980;15.436;2023-10-31T02:53:53;98564.41;;;12.00;100.00
82413;BME280;72056;51.980;15.436;2023-10-31T02:56:20;98560.81;;;12.00;100.00
82413;BME280;72056;51.980;15.436;2023-10-31T02:58:47;98562.72;;;11.99;100.00
82413;BME280;72056;51.980;15.436;2023-10-31T03:01:18;98560.19;;;11.98;100.00
82413;BME280;72056;51.980;15.436;2023-10-31T03:03:50;98555.56;;;11.98;100.00
82413;BME280;72056;51.980;15.436;2023-10-31T03:06:16;98558.28;;;11.98;100.00
82413;BME280;72056;51.980;15.436;2023-10-31T03:08:44;98550.94;;;11.99;100.00
82413;BME280;72056;51.980;15.436;2023-10-31T03:11:20;98551.78;;;11.99;100.00
82413;BME280;72056;51.980;15.436;2023-10-31T03:13:49;98548.22;;;11.99;100.00
82413;BME280;72056;51.980;15.436;2023-10-31T03:16:15;98565.00;;;11.96;100.00
82413;BME280;72056;51.980;15.436;2023-10-31T03:18:42;98559.56;;;11.96;100.00
82413;BME280;72056;51.980;15.436;2023-10-31T03:21:08;98557.69;;;11.96;100.00
82413;BME280;72056;51.980;15.436;2023-10-31T03:23:35;98559.56;;;11.96;100.00
82413;BME280;72056;51.980;15.436;2023-10-31T03:26:02;98551.56;;;11.94;100.00
82413;BME280;72056;51.980;15.436;2023-10-31T03:28:29;98560.59;;;11.95;100.00
82413;BME280;72056;51.980;15.436;2023-10-31T03:30:56;98562.47;;;11.94;100.00
82413;BME280;72056;51.980;15.436;2023-10-31T03:33:23;98560.78;;;11.93;100.00
82413;BME280;72056;51.980;15.436;2023-10-31T03:35:49;98561.03;;;11.92;100.00
82413;BME280;72056;51.980;15.436;2023-10-31T03:38:16;98559.53;;;11.89;100.00
82413;BME280;72056;51.980;15.436;2023-10-31T03:40:43;98566.00;;;11.88;100.00
82413;BME280;72056;51.980;15.436;2023-10-31T03:43:09;98565.16;;;11.88;100.00
82413;BME280;72056;51.980;15.436;2023-10-31T03:45:37;98562.44;;;11.88;100.00
82413;BME280;72056;51.980;15.436;2023-10-31T03:48:05;98565.16;;;11.88;100.00
82413;BME280;72056;51.980;15.436;2023-10-31T03:50:33;98561.84;;;11.85;100.00
82413;BME280;72056;51.980;15.436;2023-10-31T03:53:00;98551.31;;;11.82;100.00
82413;BME280;72056;51.980;15.436;2023-10-31T03:55:30;98548.78;;;11.81;100.00
82413;BME280;72056;51.980;15.436;2023-10-31T03:57:58;98555.06;;;11.81;100.00
82413;BME280;72056;51.980;15.436;2023-10-31T04:00:25;98546.06;;;11.81;100.00
82413;BME280;72056;51.980;15.436;2023-10-31T04:02:52;98542.91;;;11.77;100.00
82413;BME280;72056;51.980;15.436;2023-10-31T04:05:18;98544.59;;;11.78;100.00
82413;BME280;72056;51.980;15.436;2023-10-31T04:07:46;98541.88;;;11.78;100.00
82413;BME280;72056;51.980;15.436;2023-10-31T04:10:12;98532.41;;;11.74;100.00
82413;BME280;72056;51.980;15.436;2023-10-31T04:12:40;98534.06;;;11.75;100.00
82413;BME280;72056;51.980;15.436;2023-10-31T04:15:08;98540.56;;;11.74;100.00
82413;BME280;72056;51.980;15.436;2023-10-31T04:17:35;98533.47;;;11.73;100.00
82413;BME280;72056;51.980;15.436;2023-10-31T04:20:01;98536.34;;;11.72;100.00
82413;BME280;72056;51.980;15.436;2023-10-31T04:22:28;98540.97;;;11.71;100.00
82413;BME280;72056;51.980;15.436;2023-10-31T04:24:58;98531.28;;;11.69;100.00
82413;BME280;72056;51.980;15.436;2023-10-31T04:27:26;98526.06;;;11.67;100.00
82413;BME280;72056;51.980;15.436;2023-10-31T04:29:54;98526.06;;;11.67;100.00
82413;BME280;72056;51.980;15.436;2023-10-31T04:32:21;98523.53;;;11.66;100.00
82413;BME280;72056;51.980;15.436;2023-10-31T04:34:47;98523.09;;;11.69;100.00
82413;BME280;72056;51.980;15.436;2023-10-31T04:37:15;98517.88;;;11.67;100.00
82413;BME280;72056;51.980;15.436;2023-10-31T04:39:41;98512.00;;;11.70;100.00
82413;BME280;72056;51.980;15.436;2023-10-31T04:42:07;98514.75;;;11.70;100.00
82413;BME280;72056;51.980;15.436;2023-10-31T04:44:34;98514.53;;;11.72;100.00
82413;BME280;72056;51.980;15.436;2023-10-31T04:47:02;98512.66;;;11.72;100.00
82413;BME280;72056;51.980;15.436;2023-10-31T04:49:28;98509.75;;;11.74;100.00
82413;BME280;72056;51.980;15.436;2023-10-31T04:52:00;98507.84;;;11.74;100.00
82413;BME280;72056;51.980;15.436;2023-10-31T04:54:27;98508.69;;;11.75;100.00
82413;BME280;72056;51.980;15.436;2023-10-31T04:56:53;98504.28;;;11.74;100.00
82413;BME280;72056;51.980;15.436;2023-10-31T04:59:20;98514.81;;;11.77;100.00
82413;BME280;72056;51.980;15.436;2023-10-31T05:01:49;98517.34;;;11.78;100.00
82413;BME280;72056;51.980;15.436;2023-10-31T05:04:17;98522.41;;;11.88;100.00
82413;BME280;72056;51.980;15.436;2023-10-31T05:06:46;98521.59;;;12.01;100.00
82413;BME280;72056;51.980;15.436;2023-10-31T05:09:14;98522.03;;;12.11;100.00
82413;BME280;72056;51.980;15.436;2023-10-31T05:11:40;98512.41;;;12.21;100.00
82413;BME280;72056;51.980;15.436;2023-10-31T05:14:10;98517.06;;;12.34;100.00
82413;BME280;72056;51.980;15.436;2023-10-31T05:16:41;98516.66;;;12.37;100.00
82413;BME280;72056;51.980;15.436;2023-10-31T05:19:09;98520.44;;;12.43;100.00
82413;BME280;72056;51.980;15.436;2023-10-31T05:21:36;98515.22;;;12.48;100.00
82413;BME280;72056;51.980;15.436;2023-10-31T05:24:02;98525.09;;;12.62;100.00
82413;BME280;72056;51.980;15.436;2023-10-31T05:26:29;98525.72;;;12.71;100.00
82413;BME280;72056;51.980;15.436;2023-10-31T05:28:56;98526.38;;;12.73;100.00
82413;BME280;72056;51.980;15.436;2023-10-31T05:31:24;98535.59;;;12.78;100.00
82413;BME280;72056;51.980;15.436;2023-10-31T05:33:51;98531.63;;;12.81;100.00
82413;BME280;72056;51.980;15.436;2023-10-31T05:36:22;98527.63;;;12.77;100.00
82413;BME280;72056;51.980;15.436;2023-10-31T05:38:50;98543.78;;;12.78;100.00
82413;BME280;72056;51.980;15.436;2023-10-31T05:41:16;98533.28;;;12.75;100.00
82413;BME280;72056;51.980;15.436;2023-10-31T05:43:43;98533.91;;;12.71;100.00
82413;BME280;72056;51.980;15.436;2023-10-31T05:46:10;98537.47;;;12.71;100.00
82413;BME280;72056;51.980;15.436;2023-10-31T05:48:38;98544.84;;;12.71;100.00
82413;BME280;72056;51.980;15.436;2023-10-31T05:51:25;98547.34;;;12.65;100.00
82413;BME280;72056;51.980;15.436;2023-10-31T05:53:55;98555.72;;;12.57;100.00
82413;BME280;72056;51.980;15.436;2023-10-31T05:56:22;98552.19;;;12.57;100.00
82413;BME280;72056;51.980;15.436;2023-10-31T05:58:50;98550.28;;;12.57;100.00
82413;BME280;72056;51.980;15.436;2023-10-31T06:01:18;98568.13;;;12.53;100.00
82413;BME280;72056;51.980;15.436;2023-10-31T06:03:44;98561.19;;;12.57;100.00
82413;BME280;72056;51.980;15.436;2023-10-31T06:06:11;98571.28;;;12.50;100.00
82413;BME280;72056;51.980;15.436;2023-10-31T06:08:40;98567.28;;;12.53;100.00
82413;BME280;72056;51.980;15.436;2023-10-31T06:11:07;98566.66;;;12.51;100.00
82413;BME280;72056;51.980;15.436;2023-10-31T06:13:38;98573.16;;;12.50;100.00
82413;BME280;72056;51.980;15.436;2023-10-31T06:16:04;98575.66;;;12.51;100.00
82413;BME280;72056;51.980;15.436;2023-10-31T06:18:31;98580.06;;;12.52;100.00
82413;BME280;72056;51.980;15.436;2023-10-31T06:20:59;98584.94;;;12.50;100.00
82413;BME280;72056;51.980;15.436;2023-10-31T06:23:26;98575.44;;;12.46;100.00
82413;BME280;72056;51.980;15.436;2023-10-31T06:25:53;98587.44;;;12.52;100.00
82413;BME280;72056;51.980;15.436;2023-10-31T06:28:20;98586.38;;;12.46;100.00
82413;BME280;72056;51.980;15.436;2023-10-31T06:30:47;98589.31;;;12.51;100.00
82413;BME280;72056;51.980;15.436;2023-10-31T06:33:16;98591.22;;;12.57;100.00
82413;BME280;72056;51.980;15.436;2023-10-31T06:35:43;98589.97;;;12.53;100.00
82413;BME280;72056;51.980;15.436;2023-10-31T06:38:10;98589.56;;;12.56;100.00
82413;BME280;72056;51.980;15.436;2023-10-31T06:40:37;98597.31;;;12.59;100.00
82413;BME280;72056;51.980;15.436;2023-10-31T06:43:05;98592.28;;;12.50;100.00
82413;BME280;72056;51.980;15.436;2023-10-31T06:45:32;98595.19;;;12.48;100.00
82413;BME280;72056;51.980;15.436;2023-10-31T06:48:00;98607.38;;;12.52;100.00
82413;BME280;72056;51.980;15.436;2023-10-31T06:50:28;98615.34;;;12.47;100.00
82413;BME280;72056;51.980;15.436;2023-10-31T06:52:55;98624.41;;;12.54;100.00
82413;BME280;72056;51.980;15.436;2023-10-31T06:55:23;98629.44;;;12.57;100.00
82413;BME280;72056;51.980;15.436;2023-10-31T06:57:50;98628.81;;;12.55;100.00
82413;BME280;72056;51.980;15.436;2023-10-31T07:00:17;98636.16;;;12.55;100.00
82413;BME280;72056;51.980;15.436;2023-10-31T07:02:44;98641.41;;;12.56;100.00
82413;BME280;72056;51.980;15.436;2023-10-31T07:05:10;98643.53;;;12.61;100.00
82413;BME280;72056;51.980;15.436;2023-10-31T07:07:37;98644.16;;;12.56;100.00
82413;BME280;72056;51.980;15.436;2023-10-31T07:10:08;98653.34;;;12.49;100.00
82413;BME280;72056;51.980;15.436;2023-10-31T07:12:34;98660.31;;;12.58;100.00
82413;BME280;72056;51.980;15.436;2023-10-31T07:15:01;98671.03;;;12.59;100.00
82413;BME280;72056;51.980;15.436;2023-10-31T07:17:30;98696.84;;;12.63;100.00
82413;BME280;72056;51.980;15.436;2023-10-31T07:19:57;98681.13;;;12.65;100.00
82413;BME280;72056;51.980;15.436;2023-10-31T07:22:23;98684.66;;;12.53;100.00
82413;BME280;72056;51.980;15.436;2023-10-31T07:24:51;98695.19;;;12.62;100.00
82413;BME280;72056;51.980;15.436;2023-10-31T07:27:18;98698.13;;;12.61;100.00
82413;BME280;72056;51.980;15.436;2023-10-31T07:29:45;98701.25;;;12.58;100.00
82413;BME280;72056;51.980;15.436;2023-10-31T07:32:12;98703.94;;;12.51;100.00
82413;BME280;72056;51.980;15.436;2023-10-31T07:34:43;98704.44;;;12.61;100.00
82413;BME280;72056;51.980;15.436;2023-10-31T07:37:12;98707.78;;;12.57;100.00
82413;BME280;72056;51.980;15.436;2023-10-31T07:39:39;98705.44;;;12.54;100.00
82413;BME280;72056;51.980;15.436;2023-10-31T07:42:08;98714.25;;;12.49;100.00
82413;BME280;72056;51.980;15.436;2023-10-31T07:44:34;98713.81;;;12.52;100.00
82413;BME280;72056;51.980;15.436;2023-10-31T07:47:02;98700.22;;;12.59;100.00
82413;BME280;72056;51.980;15.436;2023-10-31T07:49:29;98711.13;;;12.59;100.00
82413;BME280;72056;51.980;15.436;2023-10-31T07:51:55;98696.88;;;12.57;100.00
82413;BME280;72056;51.980;15.436;2023-10-31T07:54:23;98704.81;;;12.58;100.00
82413;BME280;72056;51.980;15.436;2023-10-31T07:56:49;98701.94;;;12.66;100.00
82413;BME280;72056;51.980;15.436;2023-10-31T07:59:16;98710.13;;;12.66;100.00
82413;BME280;72056;51.980;15.436;2023-10-31T08:01:43;98712.41;;;12.69;100.00
82413;BME280;72056;51.980;15.436;2023-10-31T08:04:10;98710.75;;;12.68;100.00
82413;BME280;72056;51.980;15.436;2023-10-31T08:06:41;98714.06;;;12.57;100.00
82413;BME280;72056;51.980;15.436;2023-10-31T08:09:08;98714.50;;;12.61;100.00
82413;BME280;72056;51.980;15.436;2023-10-31T08:11:34;98720.16;;;12.59;100.00
82413;BME280;72056;51.980;15.436;2023-10-31T08:14:02;98715.13;;;12.56;100.00
82413;BME280;72056;51.980;15.436;2023-10-31T08:16:29;98715.97;;;12.57;100.00
82413;BME280;72056;51.980;15.436;2023-10-31T08:18:57;98736.97;;;12.56;100.00
82413;BME280;72056;51.980;15.436;2023-10-31T08:21:27;98727.97;;;12.62;100.00
82413;BME280;72056;51.980;15.436;2023-10-31T08:24:01;98732.16;;;12.65;100.00
82413;BME280;72056;51.980;15.436;2023-10-31T08:26:27;98725.22;;;12.62;100.00
82413;BME280;72056;51.980;15.436;2023-10-31T08:28:55;98730.06;;;12.67;100.00
82413;BME280;72056;51.980;15.436;2023-10-31T08:31:21;98747.72;;;12.71;100.00
82413;BME280;72056;51.980;15.436;2023-10-31T08:33:48;98749.75;;;12.56;100.00
82413;BME280;72056;51.980;15.436;2023-10-31T08:36:14;98747.63;;;12.51;100.00
82413;BME280;72056;51.980;15.436;2023-10-31T08:38:42;98737.34;;;12.53;100.00
82413;BME280;72056;51.980;15.436;2023-10-31T08:41:09;98742.66;;;12.61;100.00
82413;BME280;72056;51.980;15.436;2023-10-31T08:43:36;98752.28;;;12.57;100.00
82413;BME280;72056;51.980;15.436;2023-10-31T08:46:04;98748.50;;;12.58;100.00
82413;BME280;72056;51.980;15.436;2023-10-31T08:48:31;98771.84;;;12.61;100.00
82413;BME280;72056;51.980;15.436;2023-10-31T08:50:59;98769.91;;;12.55;100.00
82413;BME280;72056;51.980;15.436;2023-10-31T08:53:25;98764.25;;;12.56;100.00
82413;BME280;72056;51.980;15.436;2023-10-31T08:55:53;98757.72;;;12.51;100.00
82413;BME280;72056;51.980;15.436;2023-10-31T08:58:20;98760.69;;;12.56;100.00
82413;BME280;72056;51.980;15.436;2023-10-31T09:00:50;98762.34;;;12.50;100.00
82413;BME280;72056;51.980;15.436;2023-10-31T09:03:22;98761.50;;;12.50;100.00
82413;BME280;72056;51.980;15.436;2023-10-31T09:05:49;98774.47;;;12.48;100.00
82413;BME280;72056;51.980;15.436;2023-10-31T09:08:15;98780.38;;;12.45;100.00
82413;BME280;72056;51.980;15.436;2023-10-31T09:10:44;98783.09;;;12.45;100.00
82413;BME280;72056;51.980;15.436;2023-10-31T09:13:15;98777.41;;;12.46;100.00
82413;BME280;72056;51.980;15.436;2023-10-31T09:15:46;98802.78;;;12.40;100.00
82413;BME280;72056;51.980;15.436;2023-10-31T09:18:19;98790.63;;;12.43;100.00
82413;BME280;72056;51.980;15.436;2023-10-31T09:20:46;98795.09;;;12.50;100.00
82413;BME280;72056;51.980;15.436;2023-10-31T09:23:14;98804.75;;;12.53;100.00
82413;BME280;72056;51.980;15.436;2023-10-31T09:25:40;98814.81;;;12.52;100.00
82413;BME280;72056;51.980;15.436;2023-10-31T09:28:08;98821.03;;;12.40;100.00
82413;BME280;72056;51.980;15.436;2023-10-31T09:30:38;98818.91;;;12.35;100.00
82413;BME280;72056;51.980;15.436;2023-10-31T09:33:06;98827.66;;;12.24;100.00
82413;BME280;72056;51.980;15.436;2023-10-31T09:35:32;98834.34;;;12.21;100.00
82413;BME280;72056;51.980;15.436;2023-10-31T09:38:00;98864.31;;;12.15;100.00
82413;BME280;72056;51.980;15.436;2023-10-31T09:40:28;98845.75;;;12.32;100.00
82413;BME280;72056;51.980;15.436;2023-10-31T09:42:55;98871.31;;;12.24;100.00
82413;BME280;72056;51.980;15.436;2023-10-31T09:45:22;98887.56;;;12.11;100.00
82413;BME280;72056;51.980;15.436;2023-10-31T09:47:50;98909.53;;;12.03;100.00
82413;BME280;72056;51.980;15.436;2023-10-31T09:50:16;98906.59;;;12.04;100.00
82413;BME280;72056;51.980;15.436;2023-10-31T09:52:43;98933.50;;;12.07;100.00
82413;BME280;72056;51.980;15.436;2023-10-31T09:55:15;98925.38;;;12.14;100.00
82413;BME280;72056;51.980;15.436;2023-10-31T09:57:43;98933.75;;;12.12;100.00
82413;BME280;72056;51.980;15.436;2023-10-31T10:00:10;98942.03;;;12.04;100.00
82413;BME280;72056;51.980;15.436;2023-10-31T10:02:38;98928.34;;;12.19;100.00
82413;BME280;72056;51.980;15.436;2023-10-31T10:05:04;98933.94;;;12.32;100.00
82413;BME280;72056;51.980;15.436;2023-10-31T10:07:34;98933.09;;;12.32;100.00
82413;BME280;72056;51.980;15.436;2023-10-31T10:10:01;98929.72;;;12.57;100.00
82413;BME280;72056;51.980;15.436;2023-10-31T10:12:27;98938.66;;;12.73;100.00
82413;BME280;72056;51.980;15.436;2023-10-31T10:14:52;98927.03;;;12.92;100.00
82413;BME280;72056;51.980;15.436;2023-10-31T10:17:23;98926.53;;;12.82;100.00
82413;BME280;72056;51.980;15.436;2023-10-31T10:20:10;98939.00;;;12.91;100.00
82413;BME280;72056;51.980;15.436;2023-10-31T10:22:41;98931.63;;;13.19;100.00
82413;BME280;72056;51.980;15.436;2023-10-31T10:25:14;98937.78;;;13.82;100.00
82413;BME280;72056;51.980;15.436;2023-10-31T10:28:02;98935.50;;;13.38;100.00
82413;BME280;72056;51.980;15.436;2023-10-31T10:30:28;98947.91;;;13.06;100.00
82413;BME280;72056;51.980;15.436;2023-10-31T10:32:55;98945.47;;;13.18;100.00
82413;BME280;72056;51.980;15.436;2023-10-31T10:35:21;98954.75;;;13.23;100.00
82413;BME280;72056;51.980;15.436;2023-10-31T10:37:51;98958.78;;;13.27;100.00
82413;BME280;72056;51.980;15.436;2023-10-31T10:40:19;98963.88;;;13.02;100.00
82413;BME280;72056;51.980;15.436;2023-10-31T10:42:48;98975.34;;;13.19;100.00
82413;BME280;72056;51.980;15.436;2023-10-31T10:45:23;98951.31;;;13.49;100.00
82413;BME280;72056;51.980;15.436;2023-10-31T10:47:51;98951.38;;;13.62;100.00
82413;BME280;72056;51.980;15.436;2023-10-31T10:50:19;98932.09;;;13.29;100.00
82413;BME280;72056;51.980;15.436;2023-10-31T10:52:54;98935.81;;;13.15;100.00
82413;BME280;72056;51.980;15.436;2023-10-31T10:55:33;98940.13;;;13.03;100.00
82413;BME280;72056;51.980;15.436;2023-10-31T10:58:08;98947.38;;;13.17;100.00
82413;BME280;72056;51.980;15.436;2023-10-31T11:00:38;98943.06;;;13.01;100.00
82413;BME280;72056;51.980;15.436;2023-10-31T11:03:06;98956.03;;;12.93;100.00
82413;BME280;72056;51.980;15.436;2023-10-31T11:05:33;98945.72;;;12.95;100.00
82413;BME280;72056;51.980;15.436;2023-10-31T11:08:01;98949.75;;;13.27;100.00
82413;BME280;72056;51.980;15.436;2023-10-31T11:10:29;98942.84;;;13.92;100.00
82413;BME280;72056;51.980;15.436;2023-10-31T11:12:55;98956.81;;;14.29;100.00
82413;BME280;72056;51.980;15.436;2023-10-31T11:15:23;98957.13;;;15.45;100.00
82413;BME280;72056;51.980;15.436;2023-10-31T11:17:50;98955.50;;;15.31;100.00
82413;BME280;72056;51.980;15.436;2023-10-31T11:20:18;98963.06;;;15.42;100.00
82413;BME280;72056;51.980;15.436;2023-10-31T11:22:47;98960.59;;;15.21;100.00
82413;BME280;72056;51.980;15.436;2023-10-31T11:25:20;98952.34;;;15.21;100.00
82413;BME280;72056;51.980;15.436;2023-10-31T11:27:50;98959.88;;;16.03;100.00
82413;BME280;72056;51.980;15.436;2023-10-31T11:30:30;98949.41;;;15.16;100.00
82413;BME280;72056;51.980;15.436;2023-10-31T11:32:59;98959.56;;;14.29;100.00
82413;BME280;72056;51.980;15.436;2023-10-31T11:35:29;98945.28;;;13.67;100.00
82413;BME280;72056;51.980;15.436;2023-10-31T11:38:02;98962.16;;;13.77;100.00
82413;BME280;72056;51.980;15.436;2023-10-31T11:40:29;98958.16;;;13.79;100.00
82413;BME280;72056;51.980;15.436;2023-10-31T11:43:02;98966.44;;;13.99;100.00
82413;BME280;72056;51.980;15.436;2023-10-31T11:45:37;98969.41;;;14.11;100.00
82413;BME280;72056;51.980;15.436;2023-10-31T11:48:08;98978.22;;;14.06;100.00
82413;BME280;72056;51.980;15.436;2023-10-31T11:50:35;98978.19;;;13.86;100.00
82413;BME280;72056;51.980;15.436;2023-10-31T11:53:13;98980.31;;;13.98;100.00
82413;BME280;72056;51.980;15.436;2023-10-31T11:55:46;98970.66;;;14.02;100.00
82413;BME280;72056;51.980;15.436;2023-10-31T11:58:23;98968.09;;;14.00;100.00
82413;BME280;72056;51.980;15.436;2023-10-31T12:01:04;98971.69;;;14.01;100.00
82413;BME280;72056;51.980;15.436;2023-10-31T12:03:43;98958.03;;;13.94;100.00
82413;BME280;72056;51.980;15.436;2023-10-31T12:06:13;98959.06;;;14.06;100.00
82413;BME280;72056;51.980;15.436;2023-10-31T12:08:42;98964.53;;;14.06;100.00
82413;BME280;72056;51.980;15.436;2023-10-31T12:11:13;98975.75;;;14.11;100.00
82413;BME280;72056;51.980;15.436;2023-10-31T12:13:50;98995.09;;;14.10;100.00
82413;BME280;72056;51.980;15.436;2023-10-31T12:16:17;98994.66;;;14.06;100.00
82413;BME280;72056;51.980;15.436;2023-10-31T12:18:44;98999.94;;;14.14;100.00
82413;BME280;72056;51.980;15.436;2023-10-31T12:21:11;99012.16;;;14.05;100.00
82413;BME280;72056;51.980;15.436;2023-10-31T12:23:41;98999.28;;;13.99;100.00
82413;BME280;72056;51.980;15.436;2023-10-31T12:26:07;99008.53;;;13.98;100.00
82413;BME280;72056;51.980;15.436;2023-10-31T12:28:33;99007.44;;;13.86;100.00
82413;BME280;72056;51.980;15.436;2023-10-31T12:31:03;99014.97;;;13.77;100.00
82413;BME280;72056;51.980;15.436;2023-10-31T12:33:30;99016.63;;;13.72;100.00
82413;BME280;72056;51.980;15.436;2023-10-31T12:35:58;99016.47;;;13.80;100.00
82413;BME280;72056;51.980;15.436;2023-10-31T12:38:25;99029.94;;;13.81;100.00
82413;BME280;72056;51.980;15.436;2023-10-31T12:40:54;99033.03;;;13.72;100.00
82413;BME280;72056;51.980;15.436;2023-10-31T12:43:22;99040.00;;;13.74;100.00
82413;BME280;72056;51.980;15.436;2023-10-31T12:45:49;99043.16;;;13.78;100.00